sensor_id;sensor_type;location;lat;lon;timestamp;pressure;altitude;pressure_sealevel;temperature;humidity
29903;BME280;30288;50.514;9.678;2023-03-04T00:00:15;99361.53;;;1.13;100.00
29903;BME280;30288;50.514;9.678;2023-03-04T00:02:20;99364.16;;;1.21;100.00
29903;BME280;30288;50.514;9.678;2023-03-04T00:04:26;99363.31;;;1.20;100.00
29903;BME280;30288;50.514;9.678;2023-03-04T00:06:31;99369.00;;;1.15;100.00
29903;BME280;30288;50.514;9.678;2023-03-04T00:08:36;99365.47;;;1.04;100.00
29903;BME280;30288;50.514;9.678;2023-03-04T00:10:45;99355.56;;;1.04;100.00
29903;BME280;30288;50.514;9.678;2023-03-04T00:12:53;99366.41;;;1.10;100.00
29903;BME280;30288;50.514;9.678;2023-03-04T00:14:58;99355.66;;;1.10;100.00
29903;BME280;30288;50.514;9.678;2023-03-04T00:17:03;99361.56;;;1.15;100.00
29903;BME280;30288;50.514;9.678;2023-03-04T00:19:09;99361.56;;;1.15;100.00
29903;BME280;30288;50.514;9.678;2023-03-04T00:21:18;99363.97;;;1.12;100.00
29903;BME280;30288;50.514;9.678;2023-03-04T00:23:23;99362.59;;;1.26;100.00
29903;BME280;30288;50.514;9.678;2023-03-04T00:25:28;99364.50;;;1.39;100.00
29903;BME280;30288;50.514;9.678;2023-03-04T00:27:37;99361.06;;;1.31;100.00
29903;BME280;30288;50.514;9.678;2023-03-04T00:29:43;99360.94;;;1.25;100.00
29903;BME280;30288;50.514;9.678;2023-03-04T00:31:48;99362.47;;;1.20;100.00
29903;BME280;30288;50.514;9.678;2023-03-04T00:33:53;99360.75;;;1.16;100.00
29903;BME280;30288;50.514;9.678;2023-03-04T00:35:59;99362.31;;;1.11;100.00
29903;BME280;30288;50.514;9.678;2023-03-04T00:38:05;99357.22;;;1.05;100.00
29903;BME280;30288;50.514;9.678;2023-03-04T00:40:11;99353.03;;;1.02;100.00
29903;BME280;30288;50.514;9.678;2023-03-04T00:42:17;99361.28;;;1.00;100.00
29903;BME280;30288;50.514;9.678;2023-03-04T00:44:25;99356.28;;;0.98;100.00
29903;BME280;30288;50.514;9.678;2023-03-04T00:46:30;99354.66;;;1.00;100.00
29903;BME280;30288;50.514;9.678;2023-03-04T00:48:36;99353.09;;;1.04;100.00
29903;BME280;30288;50.514;9.678;2023-03-04T00:50:42;99353.94;;;1.06;100.00
29903;BME280;30288;50.514;9.678;2023-03-04T00:52:47;99350.66;;;1.07;100.00
29903;BME280;30288;50.514;9.678;2023-03-04T00:54:56;99347.41;;;1.11;100.00
29903;BME280;30288;50.514;9.678;2023-03-04T00:57:01;99352.56;;;1.20;100.00
29903;BME280;30288;50.514;9.678;2023-03-04T00:59:07;99345.91;;;1.19;100.00
29903;BME280;30288;50.514;9.678;2023-03-04T01:01:15;99342.53;;;1.14;100.00
29903;BME280;30288;50.514;9.678;2023-03-04T01:03:22;99339.31;;;1.18;100.00
29903;BME280;30288;50.514;9.678;2023-03-04T01:05:28;99339.19;;;1.12;100.00
29903;BME280;30288;50.514;9.678;2023-03-04T01:07:33;99342.59;;;1.17;100.00
29903;BME280;30288;50.514;9.678;2023-03-04T01:09:39;99342.59;;;1.17;100.00
29903;BME280;30288;50.514;9.678;2023-03-04T01:11:44;99339.22;;;1.15;100.00
29903;BME280;30288;50.514;9.678;2023-03-04T01:13:49;99339.19;;;1.12;100.00
29903;BME280;30288;50.514;9.678;2023-03-04T01:15:56;99330.06;;;1.09;100.00
29903;BME280;30288;50.514;9.678;2023-03-04T01:18:06;99326.75;;;1.10;100.00
29903;BME280;30288;50.514;9.678;2023-03-04T01:20:12;99330.75;;;1.04;100.00
29903;BME280;30288;50.514;9.678;2023-03-04T01:22:18;99320.00;;;1.05;100.00
29903;BME280;30288;50.514;9.678;2023-03-04T01:24:23;99329.97;;;1.06;100.00
29903;BME280;30288;50.514;9.678;2023-03-04T01:26:29;99327.56;;;1.11;100.00
29903;BME280;30288;50.514;9.678;2023-03-04T01:28:34;99321.72;;;1.07;100.00
29903;BME280;30288;50.514;9.678;2023-03-04T01:30:41;99321.78;;;1.09;100.00
29903;BME280;30288;50.514;9.678;2023-03-04T01:32:46;99312.66;;;1.08;100.00
29903;BME280;30288;50.514;9.678;2023-03-04T01:34:54;99313.50;;;1.08;100.00
29903;BME280;30288;50.514;9.678;2023-03-04T01:36:59;99309.28;;;1.06;100.00
29903;BME280;30288;50.514;9.678;2023-03-04T01:39:05;99305.84;;;0.98;100.00
29903;BME280;30288;50.514;9.678;2023-03-04T01:41:12;99309.19;;;1.00;100.00
29903;BME280;30288;50.514;9.678;2023-03-04T01:43:21;99299.44;;;1.09;100.00
29903;BME280;30288;50.514;9.678;2023-03-04T01:45:34;99302.72;;;1.08;100.00
29903;BME280;30288;50.514;9.678;2023-03-04T01:47:44;99301.84;;;1.06;100.00
29903;BME280;30288;50.514;9.678;2023-03-04T01:49:56;99298.63;;;1.10;100.00
29903;BME280;30288;50.514;9.678;2023-03-04T01:52:01;99300.28;;;1.09;100.00
29903;BME280;30288;50.514;9.678;2023-03-04T01:54:08;99297.78;;;1.08;100.00
29903;BME280;30288;50.514;9.678;2023-03-04T01:56:21;99294.41;;;1.06;100.00
29903;BME280;30288;50.514;9.678;2023-03-04T01:58:32;99292.81;;;1.08;100.00
29903;BME280;30288;50.514;9.678;2023-03-04T02:00:38;99285.34;;;1.06;100.00
29903;BME280;30288;50.514;9.678;2023-03-04T02:02:43;99286.94;;;1.03;100.00
29903;BME280;30288;50.514;9.678;2023-03-04T02:04:49;99281.16;;;1.04;100.00
29903;BME280;30288;50.514;9.678;2023-03-04T02:06:57;99290.25;;;1.03;100.00
29903;BME280;30288;50.514;9.678;2023-03-04T02:09:04;99289.53;;;1.10;100.00
29903;BME280;30288;50.514;9.678;2023-03-04T02:11:10;99279.53;;;1.06;100.00
29903;BME280;30288;50.514;9.678;2023-03-04T02:13:16;99276.22;;;1.04;100.00
29903;BME280;30288;50.514;9.678;2023-03-04T02:15:22;99282.94;;;1.11;100.00
29903;BME280;30288;50.514;9.678;2023-03-04T02:17:30;99273.19;;;1.20;100.00
29903;BME280;30288;50.514;9.678;2023-03-04T02:19:43;99267.31;;;1.15;100.00
29903;BME280;30288;50.514;9.678;2023-03-04T02:21:57;99272.22;;;1.12;100.00
29903;BME280;30288;50.514;9.678;2023-03-04T02:24:12;99261.41;;;1.10;100.00
29903;BME280;30288;50.514;9.678;2023-03-04T02:26:23;99259.81;;;1.12;100.00
29903;BME280;30288;50.514;9.678;2023-03-04T02:28:30;99264.72;;;1.09;100.00
29903;BME280;30288;50.514;9.678;2023-03-04T02:30:36;99260.53;;;1.06;100.00
29903;BME280;30288;50.514;9.678;2023-03-04T02:32:41;99262.13;;;1.03;100.00
29903;BME280;30288;50.514;9.678;2023-03-04T02:34:48;99259.81;;;1.12;100.00
29903;BME280;30288;50.514;9.678;2023-03-04T02:36:55;99254.84;;;1.12;100.00
29903;BME280;30288;50.514;9.678;2023-03-04T02:39:07;99259.84;;;1.13;100.00
29903;BME280;30288;50.514;9.678;2023-03-04T02:41:17;99258.22;;;1.14;100.00
29903;BME280;30288;50.514;9.678;2023-03-04T02:43:26;99259.81;;;1.12;100.00
29903;BME280;30288;50.514;9.678;2023-03-04T02:45:43;99259.03;;;1.14;100.00
29903;BME280;30288;50.514;9.678;2023-03-04T02:47:49;99255.78;;;1.17;100.00
29903;BME280;30288;50.514;9.678;2023-03-04T02:49:54;99256.56;;;1.16;100.00
29903;BME280;30288;50.514;9.678;2023-03-04T02:52:02;99263.16;;;1.14;100.00
29903;BME280;30288;50.514;9.678;2023-03-04T02:54:14;99254.81;;;1.09;100.00
29903;BME280;30288;50.514;9.678;2023-03-04T02:56:20;99253.25;;;1.14;100.00
29903;BME280;30288;50.514;9.678;2023-03-04T02:58:28;99253.28;;;1.17;100.00
29903;BME280;30288;50.514;9.678;2023-03-04T03:00:34;99249.94;;;1.15;100.00
29903;BME280;30288;50.514;9.678;2023-03-04T03:02:40;99258.53;;;1.32;100.00
29903;BME280;30288;50.514;9.678;2023-03-04T03:04:47;99254.28;;;1.26;100.00
29903;BME280;30288;50.514;9.678;2023-03-04T03:06:54;99253.41;;;1.23;100.00
29903;BME280;30288;50.514;9.678;2023-03-04T03:08:59;99255.00;;;1.21;100.00
29903;BME280;30288;50.514;9.678;2023-03-04T03:11:05;99255.13;;;1.27;100.00
29903;BME280;30288;50.514;9.678;2023-03-04T03:13:11;99257.56;;;1.25;100.00
29903;BME280;30288;50.514;9.678;2023-03-04T03:15:19;99252.56;;;1.24;100.00
29903;BME280;30288;50.514;9.678;2023-03-04T03:17:25;99250.94;;;1.23;100.00
29903;BME280;30288;50.514;9.678;2023-03-04T03:19:30;99252.63;;;1.25;100.00
29903;BME280;30288;50.514;9.678;2023-03-04T03:21:38;99249.44;;;1.34;100.00
29903;BME280;30288;50.514;9.678;2023-03-04T03:23:45;99245.41;;;1.39;100.00
29903;BME280;30288;50.514;9.678;2023-03-04T03:25:50;99251.88;;;1.31;100.00
29903;BME280;30288;50.514;9.678;2023-03-04T03:27:55;99246.81;;;1.25;100.00
29903;BME280;30288;50.514;9.678;2023-03-04T03:30:02;99245.13;;;1.22;100.00
29903;BME280;30288;50.514;9.678;2023-03-04T03:32:13;99245.97;;;1.24;100.00
29903;BME280;30288;50.514;9.678;2023-03-04T03:34:18;99250.94;;;1.24;100.00
29903;BME280;30288;50.514;9.678;2023-03-04T03:36:24;99248.44;;;1.23;100.00
29903;BME280;30288;50.514;9.678;2023-03-04T03:38:30;99243.47;;;1.23;100.00
29903;BME280;30288;50.514;9.678;2023-03-04T03:40:35;99241.00;;;1.23;100.00
29903;BME280;30288;50.514;9.678;2023-03-04T03:42:40;99236.03;;;1.23;100.00
29903;BME280;30288;50.514;9.678;2023-03-04T03:44:45;99239.41;;;1.26;100.00
29903;BME280;30288;50.514;9.678;2023-03-04T03:46:51;99231.13;;;1.26;100.00
29903;BME280;30288;50.514;9.678;2023-03-04T03:49:01;99225.34;;;1.27;100.00
29903;BME280;30288;50.514;9.678;2023-03-04T03:51:07;99233.66;;;1.29;100.00
29903;BME280;30288;50.514;9.678;2023-03-04T03:53:12;99230.31;;;1.27;100.00
29903;BME280;30288;50.514;9.678;2023-03-04T03:55:17;99229.53;;;1.28;100.00
29903;BME280;30288;50.514;9.678;2023-03-04T03:57:22;99230.31;;;1.27;100.00
29903;BME280;30288;50.514;9.678;2023-03-04T03:59:27;99232.72;;;1.24;100.00
29903;BME280;30288;50.514;9.678;2023-03-04T04:01:33;99227.78;;;1.24;100.00
29903;BME280;30288;50.514;9.678;2023-03-04T04:03:40;99226.16;;;1.26;100.00
29903;BME280;30288;50.514;9.678;2023-03-04T04:05:48;99231.13;;;1.26;100.00
29903;BME280;30288;50.514;9.678;2023-03-04T04:07:53;99219.56;;;1.26;100.00
29903;BME280;30288;50.514;9.678;2023-03-04T04:09:59;99229.47;;;1.26;100.00
29903;BME280;30288;50.514;9.678;2023-03-04T04:12:05;99223.69;;;1.26;100.00
29903;BME280;30288;50.514;9.678;2023-03-04T04:14:12;99220.44;;;1.30;100.00
29903;BME280;30288;50.514;9.678;2023-03-04T04:16:21;99220.44;;;1.30;100.00
29903;BME280;30288;50.514;9.678;2023-03-04T04:18:26;99229.53;;;1.28;100.00
29903;BME280;30288;50.514;9.678;2023-03-04T04:20:31;99223.69;;;1.26;100.00
29903;BME280;30288;50.514;9.678;2023-03-04T04:22:39;99218.72;;;1.26;100.00
29903;BME280;30288;50.514;9.678;2023-03-04T04:24:45;99221.25;;;1.27;100.00
29903;BME280;30288;50.514;9.678;2023-03-04T04:26:53;99218.69;;;1.23;100.00
29903;BME280;30288;50.514;9.678;2023-03-04T04:28:58;99216.19;;;1.23;100.00
29903;BME280;30288;50.514;9.678;2023-03-04T04:31:06;99218.72;;;1.26;100.00
29903;BME280;30288;50.514;9.678;2023-03-04T04:33:12;99216.34;;;1.33;100.00
29903;BME280;30288;50.514;9.678;2023-03-04T04:35:18;99218.97;;;1.41;100.00
29903;BME280;30288;50.514;9.678;2023-03-04T04:37:23;99223.88;;;1.38;100.00
29903;BME280;30288;50.514;9.678;2023-03-04T04:39:31;99214.81;;;1.40;100.00
29903;BME280;30288;50.514;9.678;2023-03-04T04:41:39;99214.06;;;1.44;100.00
29903;BME280;30288;50.514;9.678;2023-03-04T04:43:45;99222.25;;;1.40;100.00
29903;BME280;30288;50.514;9.678;2023-03-04T04:45:51;99205.78;;;1.42;100.00
29903;BME280;30288;50.514;9.678;2023-03-04T04:47:56;99212.38;;;1.43;100.00
29903;BME280;30288;50.514;9.678;2023-03-04T04:50:02;99222.44;;;1.52;100.00
29903;BME280;30288;50.514;9.678;2023-03-04T04:52:07;99219.09;;;1.47;100.00
29903;BME280;30288;50.514;9.678;2023-03-04T04:54:14;99219.13;;;1.50;100.00
29903;BME280;30288;50.514;9.678;2023-03-04T04:56:24;99219.97;;;1.52;100.00
29903;BME280;30288;50.514;9.678;2023-03-04T04:58:30;99220.72;;;1.48;100.00
29903;BME280;30288;50.514;9.678;2023-03-04T05:00:35;99215.72;;;1.45;100.00
29903;BME280;30288;50.514;9.678;2023-03-04T05:02:40;99219.81;;;1.43;100.00
29903;BME280;30288;50.514;9.678;2023-03-04T05:04:46;99219.81;;;1.42;100.00
29903;BME280;30288;50.514;9.678;2023-03-04T05:06:52;99214.84;;;1.42;100.00
29903;BME280;30288;50.514;9.678;2023-03-04T05:08:57;99216.50;;;1.41;100.00
29903;BME280;30288;50.514;9.678;2023-03-04T05:11:04;99216.50;;;1.43;100.00
29903;BME280;30288;50.514;9.678;2023-03-04T05:13:15;99216.50;;;1.43;100.00
29903;BME280;30288;50.514;9.678;2023-03-04T05:15:22;99212.34;;;1.40;100.00
29903;BME280;30288;50.514;9.678;2023-03-04T05:17:27;99218.91;;;1.38;100.00
29903;BME280;30288;50.514;9.678;2023-03-04T05:19:32;99215.63;;;1.39;100.00
29903;BME280;30288;50.514;9.678;2023-03-04T05:21:37;99219.75;;;1.39;100.00
29903;BME280;30288;50.514;9.678;2023-03-04T05:23:43;99215.63;;;1.39;100.00
29903;BME280;30288;50.514;9.678;2023-03-04T05:25:49;99207.34;;;1.37;100.00
29903;BME280;30288;50.514;9.678;2023-03-04T05:27:54;99208.97;;;1.38;100.00
29903;BME280;30288;50.514;9.678;2023-03-04T05:30:04;99204.84;;;1.39;100.00
29903;BME280;30288;50.514;9.678;2023-03-04T05:32:09;99203.22;;;1.39;100.00
29903;BME280;30288;50.514;9.678;2023-03-04T05:34:15;99205.78;;;1.42;100.00
29903;BME280;30288;50.514;9.678;2023-03-04T05:36:20;99209.91;;;1.43;100.00
29903;BME280;30288;50.514;9.678;2023-03-04T05:38:25;99207.41;;;1.43;100.00
29903;BME280;30288;50.514;9.678;2023-03-04T05:40:31;99218.22;;;1.45;100.00
29903;BME280;30288;50.514;9.678;2023-03-04T05:42:36;99213.16;;;1.39;100.00
29903;BME280;30288;50.514;9.678;2023-03-04T05:44:41;99213.22;;;1.42;100.00
29903;BME280;30288;50.514;9.678;2023-03-04T05:46:49;99216.03;;;1.66;100.00
29903;BME280;30288;50.514;9.678;2023-03-04T05:48:54;99204.59;;;1.74;100.00
29903;BME280;30288;50.514;9.678;2023-03-04T05:51:01;99215.25;;;1.66;100.00
29903;BME280;30288;50.514;9.678;2023-03-04T05:53:06;99206.19;;;1.69;100.00
29903;BME280;30288;50.514;9.678;2023-03-04T05:55:12;99214.53;;;1.74;100.00
29903;BME280;30288;50.514;9.678;2023-03-04T05:57:17;99207.19;;;1.82;100.00
29903;BME280;30288;50.514;9.678;2023-03-04T05:59:22;99207.03;;;1.71;100.00
29903;BME280;30288;50.514;9.678;2023-03-04T06:01:28;99216.03;;;1.66;100.00
29903;BME280;30288;50.514;9.678;2023-03-04T06:03:36;99216.22;;;1.75;100.00
29903;BME280;30288;50.514;9.678;2023-03-04T06:05:42;99219.53;;;1.77;100.00
29903;BME280;30288;50.514;9.678;2023-03-04T06:07:47;99215.56;;;1.89;100.00
29903;BME280;30288;50.514;9.678;2023-03-04T06:09:53;99219.63;;;1.84;100.00
29903;BME280;30288;50.514;9.678;2023-03-04T06:11:57;99222.88;;;1.80;100.00
29903;BME280;30288;50.514;9.678;2023-03-04T06:14:02;99226.19;;;1.79;100.00
29903;BME280;30288;50.514;9.678;2023-03-04T06:16:08;99230.41;;;1.84;100.00
29903;BME280;30288;50.514;9.678;2023-03-04T06:18:13;99233.00;;;1.92;100.00
29903;BME280;30288;50.514;9.678;2023-03-04T06:20:21;99232.94;;;1.89;100.00
29903;BME280;30288;50.514;9.678;2023-03-04T06:22:29;99227.13;;;1.85;100.00
29903;BME280;30288;50.514;9.678;2023-03-04T06:24:35;99234.53;;;1.84;100.00
29903;BME280;30288;50.514;9.678;2023-03-04T06:26:40;99235.31;;;1.81;100.00
29903;BME280;30288;50.514;9.678;2023-03-04T06:28:45;99227.84;;;1.80;100.00
29903;BME280;30288;50.514;9.678;2023-03-04T06:30:51;99240.28;;;1.80;100.00
29903;BME280;30288;50.514;9.678;2023-03-04T06:32:56;99237.84;;;1.86;100.00
29903;BME280;30288;50.514;9.678;2023-03-04T06:35:01;99237.28;;;2.02;100.00
29903;BME280;30288;50.514;9.678;2023-03-04T06:37:09;99241.34;;;1.97;100.00
29903;BME280;30288;50.514;9.678;2023-03-04T06:39:15;99249.59;;;1.94;100.00
29903;BME280;30288;50.514;9.678;2023-03-04T06:41:20;99237.97;;;1.92;100.00
29903;BME280;30288;50.514;9.678;2023-03-04T06:43:25;99246.22;;;1.91;100.00
29903;BME280;30288;50.514;9.678;2023-03-04T06:45:30;99243.72;;;1.91;100.00
29903;BME280;30288;50.514;9.678;2023-03-04T06:47:36;99250.44;;;1.95;100.00
29903;BME280;30288;50.514;9.678;2023-03-04T06:49:41;99256.38;;;2.06;100.00
29903;BME280;30288;50.514;9.678;2023-03-04T06:51:46;99246.50;;;2.10;100.00
29903;BME280;30288;50.514;9.678;2023-03-04T06:53:54;99254.03;;;2.16;100.00
29903;BME280;30288;50.514;9.678;2023-03-04T06:55:59;99254.88;;;2.17;100.00
29903;BME280;30288;50.514;9.678;2023-03-04T06:58:05;99253.22;;;2.16;100.00
29903;BME280;30288;50.514;9.678;2023-03-04T07:00:13;99250.72;;;2.16;100.00
29903;BME280;30288;50.514;9.678;2023-03-04T07:02:18;99260.66;;;2.16;100.00
29903;BME280;30288;50.514;9.678;2023-03-04T07:04:23;99251.53;;;2.15;100.00
29903;BME280;30288;50.514;9.678;2023-03-04T07:06:29;99261.66;;;2.27;100.00
29903;BME280;30288;50.514;9.678;2023-03-04T07:08:34;99262.50;;;2.29;100.00
29903;BME280;30288;50.514;9.678;2023-03-04T07:10:42;99265.19;;;2.44;100.00
29903;BME280;30288;50.514;9.678;2023-03-04T07:12:47;99263.44;;;2.39;100.00
29903;BME280;30288;50.514;9.678;2023-03-04T07:14:52;99270.06;;;2.38;100.00
29903;BME280;30288;50.514;9.678;2023-03-04T07:16:57;99270.03;;;2.35;100.00
29903;BME280;30288;50.514;9.678;2023-03-04T07:19:02;99266.75;;;2.36;100.00
29903;BME280;30288;50.514;9.678;2023-03-04T07:21:08;99267.66;;;2.41;100.00
29903;BME280;30288;50.514;9.678;2023-03-04T07:23:13;99270.06;;;2.38;100.00
29903;BME280;30288;50.514;9.678;2023-03-04T07:25:18;99278.47;;;2.46;100.00
29903;BME280;30288;50.514;9.678;2023-03-04T07:27:26;99275.25;;;2.53;100.00
29903;BME280;30288;50.514;9.678;2023-03-04T07:29:31;99273.63;;;2.55;100.00
29903;BME280;30288;50.514;9.678;2023-03-04T07:31:36;99275.41;;;2.67;100.00
29903;BME280;30288;50.514;9.678;2023-03-04T07:33:41;99273.94;;;2.83;100.00
29903;BME280;30288;50.514;9.678;2023-03-04T07:35:46;99279.06;;;2.95;100.00
29903;BME280;30288;50.514;9.678;2023-03-04T07:37:51;99274.81;;;2.86;100.00
29903;BME280;30288;50.514;9.678;2023-03-04T07:39:56;99275.53;;;2.78;100.00
29903;BME280;30288;50.514;9.678;2023-03-04T07:42:01;99276.34;;;2.77;100.00
29903;BME280;30288;50.514;9.678;2023-03-04T07:44:15;99282.38;;;2.94;100.00
29903;BME280;30288;50.514;9.678;2023-03-04T07:46:20;99285.66;;;2.90;100.00
29903;BME280;30288;50.514;9.678;2023-03-04T07:48:25;99279.03;;;2.92;100.00
29903;BME280;30288;50.514;9.678;2023-03-04T07:50:30;99275.84;;;3.03;100.00
29903;BME280;30288;50.514;9.678;2023-03-04T07:52:37;99284.16;;;3.04;100.00
29903;BME280;30288;50.514;9.678;2023-03-04T07:54:42;99280.91;;;3.11;100.00
29903;BME280;30288;50.514;9.678;2023-03-04T07:56:47;99284.25;;;3.15;100.00
29903;BME280;30288;50.514;9.678;2023-03-04T07:58:52;99284.19;;;3.07;100.00
29903;BME280;30288;50.514;9.678;2023-03-04T08:01:00;99282.47;;;3.03;100.00
29903;BME280;30288;50.514;9.678;2023-03-04T08:03:05;99279.38;;;3.22;100.00
29903;BME280;30288;50.514;9.678;2023-03-04T08:05:10;99288.41;;;3.16;100.00
29903;BME280;30288;50.514;9.678;2023-03-04T08:07:15;99280.91;;;3.14;100.00
29903;BME280;30288;50.514;9.678;2023-03-04T08:09:21;99281.78;;;3.16;100.00
29903;BME280;30288;50.514;9.678;2023-03-04T08:11:31;99275.19;;;3.18;100.00
29903;BME280;30288;50.514;9.678;2023-03-04T08:13:36;99283.50;;;3.23;100.00
29903;BME280;30288;50.514;9.678;2023-03-04T08:15:42;99274.44;;;3.28;100.00
29903;BME280;30288;50.514;9.678;2023-03-04T08:17:50;99276.09;;;3.29;100.00
29903;BME280;30288;50.514;9.678;2023-03-04T08:19:55;99263.75;;;3.38;100.00
29903;BME280;30288;50.514;9.678;2023-03-04T08:22:00;99266.38;;;3.57;100.00
29903;BME280;30288;50.514;9.678;2023-03-04T08:24:06;99271.28;;;3.44;100.00
29903;BME280;30288;50.514;9.678;2023-03-04T08:26:16;99267.97;;;3.45;100.00
29903;BME280;30288;50.514;9.678;2023-03-04T08:28:22;99272.28;;;3.65;100.00
29903;BME280;30288;50.514;9.678;2023-03-04T08:30:27;99269.75;;;3.59;100.00
29903;BME280;30288;50.514;9.678;2023-03-04T08:32:32;99268.88;;;3.57;100.00
29903;BME280;30288;50.514;9.678;2023-03-04T08:34:40;99269.03;;;3.70;100.00
29903;BME280;30288;50.514;9.678;2023-03-04T08:36:45;99269.81;;;3.68;100.00
29903;BME280;30288;50.514;9.678;2023-03-04T08:38:50;99268.19;;;3.73;100.00
29903;BME280;30288;50.514;9.678;2023-03-04T08:40:56;99272.28;;;3.66;100.00
29903;BME280;30288;50.514;9.678;2023-03-04T08:43:02;99258.22;;;3.73;100.00
29903;BME280;30288;50.514;9.678;2023-03-04T08:45:08;99264.88;;;3.74;100.00
29903;BME280;30288;50.514;9.678;2023-03-04T08:47:13;99266.69;;;3.94;100.00
29903;BME280;30288;50.514;9.678;2023-03-04T08:49:19;99262.59;;;4.01;100.00
29903;BME280;30288;50.514;9.678;2023-03-04T08:51:26;99255.13;;;4.04;100.00
29903;BME280;30288;50.514;9.678;2023-03-04T08:53:31;99264.22;;;3.97;100.00
29903;BME280;30288;50.514;9.678;2023-03-04T08:55:37;99267.53;;;3.95;100.00
29903;BME280;30288;50.514;9.678;2023-03-04T08:57:42;99271.72;;;3.99;100.00
29903;BME280;30288;50.514;9.678;2023-03-04T08:59:47;99276.75;;;4.05;100.00
29903;BME280;30288;50.514;9.678;2023-03-04T09:01:52;99271.75;;;4.02;100.00
29903;BME280;30288;50.514;9.678;2023-03-04T09:03:57;99279.91;;;3.86;100.00
29903;BME280;30288;50.514;9.678;2023-03-04T09:06:04;99273.25;;;3.82;100.00
29903;BME280;30288;50.514;9.678;2023-03-04T09:08:12;99277.47;;;3.90;100.00
29903;BME280;30288;50.514;9.678;2023-03-04T09:10:18;99281.66;;;3.96;100.00
29903;BME280;30288;50.514;9.678;2023-03-04T09:12:22;99277.53;;;4.01;100.00
29903;BME280;30288;50.514;9.678;2023-03-04T09:14:28;99271.81;;;4.14;100.00
29903;BME280;30288;50.514;9.678;2023-03-04T09:16:33;99275.09;;;4.07;100.00
29903;BME280;30288;50.514;9.678;2023-03-04T09:18:39;99269.34;;;4.17;100.00
29903;BME280;30288;50.514;9.678;2023-03-04T09:20:45;99270.19;;;4.21;100.00
29903;BME280;30288;50.514;9.678;2023-03-04T09:22:50;99276.78;;;4.08;100.00
29903;BME280;30288;50.514;9.678;2023-03-04T09:24:58;99272.59;;;4.07;100.00
29903;BME280;30288;50.514;9.678;2023-03-04T09:27:03;99269.28;;;4.07;100.00
29903;BME280;30288;50.514;9.678;2023-03-04T09:29:08;99266.84;;;4.13;100.00
29903;BME280;30288;50.514;9.678;2023-03-04T09:31:14;99264.38;;;4.20;100.00
29903;BME280;30288;50.514;9.678;2023-03-04T09:33:19;99266.94;;;4.32;100.00
29903;BME280;30288;50.514;9.678;2023-03-04T09:35:25;99269.47;;;4.40;100.00
29903;BME280;30288;50.514;9.678;2023-03-04T09:37:31;99267.06;;;4.54;100.00
29903;BME280;30288;50.514;9.678;2023-03-04T09:39:36;99267.91;;;4.59;100.00
29903;BME280;30288;50.514;9.678;2023-03-04T09:41:46;99263.69;;;4.52;100.00
29903;BME280;30288;50.514;9.678;2023-03-04T09:43:54;99269.59;;;4.63;100.00
29903;BME280;30288;50.514;9.678;2023-03-04T09:46:04;99268.75;;;4.67;100.00
29903;BME280;30288;50.514;9.678;2023-03-04T09:48:16;99265.44;;;4.68;100.00
29903;BME280;30288;50.514;9.678;2023-03-04T09:50:22;99268.75;;;4.67;100.00
29903;BME280;30288;50.514;9.678;2023-03-04T09:52:40;99267.16;;;4.75;100.00
29903;BME280;30288;50.514;9.678;2023-03-04T09:55:03;99264.72;;;4.92;100.00
29903;BME280;30288;50.514;9.678;2023-03-04T09:57:27;99268.00;;;4.86;100.00
29903;BME280;30288;50.514;9.678;2023-03-04T09:59:42;99264.69;;;4.90;100.00
29903;BME280;30288;50.514;9.678;2023-03-04T10:01:53;99258.03;;;4.88;100.00
29903;BME280;30288;50.514;9.678;2023-03-04T10:04:04;99260.53;;;4.86;100.00
29903;BME280;30288;50.514;9.678;2023-03-04T10:06:16;99258.81;;;4.70;100.00
29903;BME280;30288;50.514;9.678;2023-03-04T10:08:42;99253.88;;;4.82;100.00
29903;BME280;30288;50.514;9.678;2023-03-04T10:10:51;99254.72;;;4.87;100.00
29903;BME280;30288;50.514;9.678;2023-03-04T10:13:01;99258.84;;;4.82;100.00
29903;BME280;30288;50.514;9.678;2023-03-04T10:15:22;99258.91;;;5.00;100.00
29903;BME280;30288;50.514;9.678;2023-03-04T10:17:33;99256.44;;;5.09;100.00
29903;BME280;30288;50.514;9.678;2023-03-04T10:19:50;99257.28;;;5.11;100.00
29903;BME280;30288;50.514;9.678;2023-03-04T10:21:56;99254.78;;;5.13;100.00
29903;BME280;30288;50.514;9.678;2023-03-04T10:24:07;99251.47;;;5.27;100.00
29903;BME280;30288;50.514;9.678;2023-03-04T10:26:17;99249.00;;;5.31;100.00
29903;BME280;30288;50.514;9.678;2023-03-04T10:28:28;99249.00;;;5.58;100.00
29903;BME280;30288;50.514;9.678;2023-03-04T10:30:47;99250.69;;;5.56;100.00
29903;BME280;30288;50.514;9.678;2023-03-04T10:32:54;99240.66;;;5.71;100.00
29903;BME280;30288;50.514;9.678;2023-03-04T10:34:59;99240.66;;;6.04;100.00
29903;BME280;30288;50.514;9.678;2023-03-04T10:37:06;99244.84;;;5.99;100.00
29903;BME280;30288;50.514;9.678;2023-03-04T10:39:18;99247.34;;;6.02;100.00
29903;BME280;30288;50.514;9.678;2023-03-04T10:41:28;99233.97;;;6.19;100.00
29903;BME280;30288;50.514;9.678;2023-03-04T10:43:36;99238.91;;;6.44;100.00
29903;BME280;30288;50.514;9.678;2023-03-04T10:45:41;99232.19;;;6.57;100.00
29903;BME280;30288;50.514;9.678;2023-03-04T10:47:52;99238.88;;;6.55;100.00
29903;BME280;30288;50.514;9.678;2023-03-04T10:49:59;99232.28;;;6.30;100.00
29903;BME280;30288;50.514;9.678;2023-03-04T10:52:18;99227.25;;;6.33;100.00
29903;BME280;30288;50.514;9.678;2023-03-04T10:54:28;99232.38;;;5.93;100.00
29903;BME280;30288;50.514;9.678;2023-03-04T10:56:38;99230.66;;;6.10;100.00
29903;BME280;30288;50.514;9.678;2023-03-04T10:58:46;99223.19;;;5.97;100.00
29903;BME280;30288;50.514;9.678;2023-03-04T11:01:01;99223.16;;;6.21;100.00
29903;BME280;30288;50.514;9.678;2023-03-04T11:03:27;99217.25;;;6.37;100.00
29903;BME280;30288;50.514;9.678;2023-03-04T11:05:33;99208.91;;;6.37;100.00
29903;BME280;30288;50.514;9.678;2023-03-04T11:07:40;99223.09;;;6.36;100.00
29903;BME280;30288;50.514;9.678;2023-03-04T11:10:10;99215.56;;;6.50;100.00
29903;BME280;30288;50.514;9.678;2023-03-04T11:12:19;99208.81;;;6.61;100.00